BRU731 UKKK-UMMS
Flight info
| Callsign | BRU731 |
|---|---|
| Flight time | 0h 37m |
| Altitude | 32000 |
| Route | LASDA M850 BAGAM M996 DAKWI DAKWI2J |
| Aircraft | B738/M-SDE2E3FGHIRWXY/LB1 |
Departure
| Time | 2026-05-05 22:07 |
|---|---|
| Airport | Ihor Sikorsky Kyiv International Airport (Zhuliany) (UKKK) |
Arrival
| Time | 2026-05-05 22:45 |
|---|---|
| Airport | Minsk National Airport (UMMS) |
| Time | Latitude | Longitude | Altitude | Speed | Heading |
|---|---|---|---|---|---|
| 2026-05-05 21:52 | 50.41065 | 30.44190 | 573 ft | 0 kts | 204° |
| 2026-05-05 22:03 | 50.41054 | 30.44185 | 575 ft | 4 kts | 191° |
| 2026-05-05 22:03 | 50.41017 | 30.44205 | 577 ft | 8 kts | 135° |
| 2026-05-05 22:04 | 50.41004 | 30.44304 | 576 ft | 11 kts | 86° |
| 2026-05-05 22:04 | 50.41008 | 30.44441 | 582 ft | 14 kts | 89° |
| 2026-05-05 22:04 | 50.41012 | 30.44609 | 581 ft | 17 kts | 98° |
| 2026-05-05 22:04 | 50.40943 | 30.44766 | 580 ft | 19 kts | 131° |
| 2026-05-05 22:05 | 50.40851 | 30.44928 | 581 ft | 21 kts | 131° |
| 2026-05-05 22:05 | 50.40752 | 30.45107 | 583 ft | 23 kts | 131° |
| 2026-05-05 22:05 | 50.40641 | 30.45304 | 584 ft | 25 kts | 131° |
| 2026-05-05 22:05 | 50.40518 | 30.45524 | 586 ft | 29 kts | 130° |
| 2026-05-05 22:06 | 50.40472 | 30.45820 | 588 ft | 28 kts | 95° |
| 2026-05-05 22:06 | 50.40451 | 30.46111 | 591 ft | 24 kts | 102° |
| 2026-05-05 22:06 | 50.40371 | 30.46192 | 591 ft | 13 kts | 174° |
| 2026-05-05 22:06 | 50.40279 | 30.46198 | 591 ft | 13 kts | 188° |
| 2026-05-05 22:07 | 50.40212 | 30.45975 | 590 ft | 58 kts | 266° |
| 2026-05-05 22:07 | 50.40165 | 30.44868 | 581 ft | 142 kts | 265° |
| 2026-05-05 22:07 | 50.40097 | 30.43074 | 1062 ft | 173 kts | 264° |
| 2026-05-05 22:07 | 50.39985 | 30.41102 | 2006 ft | 186 kts | 263° |
| 2026-05-05 22:08 | 50.39860 | 30.39073 | 2926 ft | 198 kts | 252° |
| 2026-05-05 22:08 | 50.38997 | 30.37399 | 3231 ft | 198 kts | 208° |
| 2026-05-05 22:08 | 50.37693 | 30.37234 | 3518 ft | 196 kts | 161° |
| 2026-05-05 22:08 | 50.36448 | 30.38377 | 3924 ft | 217 kts | 143° |
| 2026-05-05 22:09 | 50.35457 | 30.40195 | 4269 ft | 224 kts | 125° |
| 2026-05-05 22:09 | 50.34588 | 30.42219 | 4634 ft | 224 kts | 125° |
| 2026-05-05 22:09 | 50.33878 | 30.44391 | 4937 ft | 235 kts | 99° |
| 2026-05-05 22:09 | 50.34124 | 30.47021 | 5245 ft | 263 kts | 61° |
| 2026-05-05 22:10 | 50.35406 | 30.49142 | 5803 ft | 276 kts | 29° |
| 2026-05-05 22:10 | 50.37225 | 30.50055 | 6667 ft | 277 kts | 2° |
| 2026-05-05 22:10 | 50.39140 | 30.49948 | 7617 ft | 276 kts | 352° |
| 2026-05-05 22:10 | 50.41056 | 30.49522 | 8522 ft | 280 kts | 349° |
| 2026-05-05 22:11 | 50.42992 | 30.49026 | 9413 ft | 284 kts | 349° |
| 2026-05-05 22:11 | 50.44953 | 30.48526 | 10285 ft | 288 kts | 349° |
| 2026-05-05 22:11 | 50.46997 | 30.48023 | 10668 ft | 310 kts | 350° |
| 2026-05-05 22:11 | 50.49193 | 30.47502 | 10870 ft | 335 kts | 351° |
| 2026-05-05 22:12 | 50.51577 | 30.46958 | 11450 ft | 346 kts | 351° |
| 2026-05-05 22:12 | 50.53941 | 30.46434 | 12268 ft | 348 kts | 351° |
| 2026-05-05 22:12 | 50.56346 | 30.45912 | 13141 ft | 351 kts | 352° |
| 2026-05-05 22:12 | 50.58784 | 30.45388 | 13902 ft | 356 kts | 352° |
| 2026-05-05 22:13 | 50.61298 | 30.44850 | 14133 ft | 376 kts | 352° |
| 2026-05-05 22:13 | 50.63959 | 30.44282 | 14277 ft | 395 kts | 352° |
| 2026-05-05 22:13 | 50.66735 | 30.43691 | 14616 ft | 405 kts | 352° |
| 2026-05-05 22:13 | 50.69493 | 30.43106 | 15693 ft | 394 kts | 352° |
| 2026-05-05 22:14 | 50.72161 | 30.42539 | 16984 ft | 379 kts | 352° |
| 2026-05-05 22:14 | 50.74745 | 30.41990 | 18134 ft | 373 kts | 352° |
| 2026-05-05 22:14 | 50.77342 | 30.41436 | 18646 ft | 380 kts | 352° |
| 2026-05-05 22:14 | 50.80009 | 30.40865 | 18884 ft | 395 kts | 352° |
| 2026-05-05 22:15 | 50.82792 | 30.40268 | 18992 ft | 412 kts | 352° |
| 2026-05-05 22:15 | 50.85680 | 30.39649 | 19233 ft | 422 kts | 352° |
| 2026-05-05 22:15 | 50.88557 | 30.39032 | 20217 ft | 412 kts | 352° |
| 2026-05-05 22:15 | 50.91363 | 30.38432 | 21277 ft | 402 kts | 351° |
| 2026-05-05 22:16 | 50.94134 | 30.37837 | 21959 ft | 404 kts | 351° |
| 2026-05-05 22:16 | 50.96940 | 30.37233 | 22418 ft | 410 kts | 351° |
| 2026-05-05 22:16 | 50.99782 | 30.36620 | 22894 ft | 415 kts | 351° |
| 2026-05-05 22:16 | 51.02654 | 30.36000 | 23437 ft | 418 kts | 351° |
| 2026-05-05 22:17 | 51.05547 | 30.35375 | 23890 ft | 421 kts | 351° |
| 2026-05-05 22:17 | 51.08458 | 30.34745 | 24285 ft | 425 kts | 351° |
| 2026-05-05 22:17 | 51.11427 | 30.34101 | 24372 ft | 437 kts | 351° |
| 2026-05-05 22:17 | 51.14482 | 30.33439 | 24458 ft | 448 kts | 352° |
| 2026-05-05 22:18 | 51.17608 | 30.32760 | 24549 ft | 458 kts | 352° |
| 2026-05-05 22:18 | 51.20794 | 30.32067 | 24688 ft | 466 kts | 352° |
| 2026-05-05 22:18 | 51.24018 | 30.31365 | 24918 ft | 470 kts | 352° |
| 2026-05-05 22:18 | 51.27267 | 30.30657 | 25293 ft | 470 kts | 352° |
| 2026-05-05 22:19 | 51.30499 | 30.29952 | 25818 ft | 467 kts | 352° |
| 2026-05-05 22:19 | 51.33710 | 30.29250 | 26352 ft | 464 kts | 352° |
| 2026-05-05 22:19 | 51.36906 | 30.28550 | 26844 ft | 463 kts | 352° |
| 2026-05-05 22:19 | 51.40101 | 30.27849 | 27256 ft | 463 kts | 352° |
| 2026-05-05 22:20 | 51.43252 | 30.27158 | 27690 ft | 463 kts | 352° |
| 2026-05-05 22:20 | 51.46429 | 30.26358 | 28168 ft | 461 kts | 347° |
| 2026-05-05 22:20 | 51.49499 | 30.24922 | 28657 ft | 459 kts | 338° |
| 2026-05-05 22:20 | 51.52411 | 30.22818 | 29128 ft | 458 kts | 334° |
| 2026-05-05 22:21 | 51.55278 | 30.20590 | 29583 ft | 457 kts | 334° |
| 2026-05-05 22:21 | 51.58132 | 30.18345 | 30040 ft | 456 kts | 334° |
| 2026-05-05 22:21 | 51.60984 | 30.16118 | 30458 ft | 454 kts | 334° |
| 2026-05-05 22:21 | 51.63831 | 30.13920 | 30890 ft | 453 kts | 334° |
| 2026-05-05 22:22 | 51.66667 | 30.11748 | 31290 ft | 451 kts | 334° |
| 2026-05-05 22:22 | 51.69504 | 30.09584 | 31675 ft | 450 kts | 334° |
| 2026-05-05 22:22 | 51.72335 | 30.07427 | 31895 ft | 452 kts | 334° |
| 2026-05-05 22:23 | 51.78051 | 30.03061 | 31883 ft | 454 kts | 334° |
| 2026-05-05 22:23 | 51.83712 | 29.98722 | 31889 ft | 448 kts | 334° |
| 2026-05-05 22:24 | 51.89415 | 29.94689 | 31893 ft | 448 kts | 339° |
| 2026-05-05 22:24 | 51.95304 | 29.91316 | 31891 ft | 449 kts | 340° |
| 2026-05-05 22:25 | 52.01215 | 29.88004 | 31881 ft | 450 kts | 340° |
| 2026-05-05 22:25 | 52.07119 | 29.84621 | 31878 ft | 450 kts | 340° |
| 2026-05-05 22:26 | 52.13018 | 29.81191 | 31884 ft | 452 kts | 339° |
| 2026-05-05 22:26 | 52.18882 | 29.77291 | 31877 ft | 455 kts | 331° |
| 2026-05-05 22:26 | 52.21612 | 29.74868 | 31867 ft | 439 kts | 330° |
| 2026-05-05 22:27 | 52.24237 | 29.72437 | 31863 ft | 431 kts | 329° |
| 2026-05-05 22:27 | 52.29444 | 29.67579 | 31885 ft | 433 kts | 329° |
| 2026-05-05 22:28 | 52.34715 | 29.62732 | 31877 ft | 434 kts | 329° |
| 2026-05-05 22:28 | 52.39944 | 29.57973 | 31865 ft | 427 kts | 330° |
| 2026-05-05 22:28 | 52.42553 | 29.55602 | 31611 ft | 434 kts | 330° |
| 2026-05-05 22:29 | 52.45253 | 29.53143 | 30953 ft | 454 kts | 330° |
| 2026-05-05 22:29 | 52.48059 | 29.50584 | 30156 ft | 467 kts | 330° |
| 2026-05-05 22:29 | 52.50921 | 29.47972 | 29187 ft | 474 kts | 329° |
| 2026-05-05 22:29 | 52.53809 | 29.45334 | 28195 ft | 475 kts | 329° |
| 2026-05-05 22:30 | 52.56706 | 29.42684 | 27206 ft | 478 kts | 329° |
| 2026-05-05 22:30 | 52.59619 | 29.40015 | 26158 ft | 481 kts | 329° |
| 2026-05-05 22:30 | 52.62502 | 29.37368 | 25307 ft | 481 kts | 329° |
| 2026-05-05 22:30 | 52.65462 | 29.34647 | 24569 ft | 480 kts | 329° |
| 2026-05-05 22:31 | 52.68325 | 29.32012 | 23834 ft | 475 kts | 329° |
| 2026-05-05 22:31 | 52.71192 | 29.29368 | 23001 ft | 470 kts | 328° |
| 2026-05-05 22:31 | 52.74020 | 29.26758 | 22186 ft | 461 kts | 328° |
| 2026-05-05 22:31 | 52.76794 | 29.24192 | 21458 ft | 456 kts | 328° |
| 2026-05-05 22:32 | 52.79629 | 29.21560 | 21282 ft | 475 kts | 328° |
| 2026-05-05 22:32 | 52.82486 | 29.18906 | 21389 ft | 460 kts | 328° |
| 2026-05-05 22:32 | 52.85229 | 29.16362 | 20867 ft | 445 kts | 328° |
| 2026-05-05 22:32 | 52.87885 | 29.13896 | 19777 ft | 433 kts | 328° |
| 2026-05-05 22:33 | 52.90490 | 29.11469 | 18576 ft | 427 kts | 328° |
| 2026-05-05 22:33 | 52.93057 | 29.09072 | 17317 ft | 421 kts | 328° |
| 2026-05-05 22:33 | 52.95591 | 29.06702 | 16055 ft | 416 kts | 328° |
| 2026-05-05 22:33 | 52.98118 | 29.04332 | 15113 ft | 417 kts | 328° |
| 2026-05-05 22:34 | 53.00595 | 29.02011 | 14299 ft | 401 kts | 328° |
| 2026-05-05 22:34 | 53.03027 | 28.99728 | 13676 ft | 396 kts | 328° |
| 2026-05-05 22:34 | 53.05368 | 28.97532 | 13814 ft | 388 kts | 328° |
| 2026-05-05 22:34 | 53.07745 | 28.95291 | 13725 ft | 392 kts | 328° |
| 2026-05-05 22:35 | 53.10103 | 28.93067 | 12968 ft | 391 kts | 328° |
| 2026-05-05 22:35 | 53.12477 | 28.90826 | 12074 ft | 392 kts | 328° |
| 2026-05-05 22:35 | 53.14827 | 28.88606 | 11062 ft | 384 kts | 328° |
| 2026-05-05 22:35 | 53.17134 | 28.86425 | 10002 ft | 378 kts | 328° |
| 2026-05-05 22:36 | 53.19407 | 28.84275 | 8904 ft | 373 kts | 328° |
| 2026-05-05 22:36 | 53.21647 | 28.82152 | 7817 ft | 367 kts | 328° |
| 2026-05-05 22:36 | 53.23820 | 28.80090 | 6811 ft | 362 kts | 328° |
| 2026-05-05 22:36 | 53.25989 | 28.77987 | 5801 ft | 361 kts | 326° |
| 2026-05-05 22:37 | 53.28133 | 28.75770 | 4965 ft | 363 kts | 326° |
| 2026-05-05 22:37 | 53.30236 | 28.73544 | 4784 ft | 349 kts | 325° |
| 2026-05-05 22:37 | 53.32252 | 28.71406 | 4846 ft | 347 kts | 325° |
| 2026-05-05 22:37 | 53.34342 | 28.69186 | 4913 ft | 365 kts | 325° |
| 2026-05-05 22:38 | 53.36603 | 28.66784 | 4939 ft | 403 kts | 326° |
| 2026-05-05 22:38 | 53.39014 | 28.64234 | 4933 ft | 412 kts | 326° |
| 2026-05-05 22:38 | 53.41440 | 28.61680 | 4915 ft | 412 kts | 326° |
| 2026-05-05 22:38 | 53.43865 | 28.59129 | 4918 ft | 412 kts | 326° |
| 2026-05-05 22:39 | 53.46293 | 28.56574 | 4919 ft | 412 kts | 326° |
| 2026-05-05 22:39 | 53.48721 | 28.54017 | 4920 ft | 412 kts | 326° |
| 2026-05-05 22:39 | 53.51141 | 28.51460 | 4919 ft | 412 kts | 326° |
| 2026-05-05 22:39 | 53.53565 | 28.48892 | 4915 ft | 412 kts | 326° |
| 2026-05-05 22:40 | 53.55988 | 28.46319 | 4915 ft | 412 kts | 326° |
| 2026-05-05 22:40 | 53.58370 | 28.43795 | 4918 ft | 390 kts | 326° |
| 2026-05-05 22:40 | 53.60571 | 28.41464 | 5023 ft | 360 kts | 326° |
| 2026-05-05 22:40 | 53.62666 | 28.39237 | 4429 ft | 354 kts | 326° |
| 2026-05-05 22:41 | 53.64748 | 28.37014 | 3681 ft | 354 kts | 326° |
| 2026-05-05 22:41 | 53.66831 | 28.34785 | 3356 ft | 358 kts | 326° |
| 2026-05-05 22:41 | 53.69002 | 28.32462 | 3269 ft | 390 kts | 326° |
| 2026-05-05 22:41 | 53.71359 | 28.29938 | 3159 ft | 405 kts | 326° |
| 2026-05-05 22:42 | 53.73741 | 28.27391 | 3045 ft | 405 kts | 326° |
| 2026-05-05 22:42 | 53.76056 | 28.24884 | 2982 ft | 382 kts | 323° |
| 2026-05-05 22:42 | 53.78029 | 28.22189 | 2981 ft | 346 kts | 316° |
| 2026-05-05 22:42 | 53.79687 | 28.19643 | 2933 ft | 297 kts | 316° |
| 2026-05-05 22:43 | 53.81135 | 28.17373 | 2438 ft | 272 kts | 315° |
| 2026-05-05 22:43 | 53.82474 | 28.15278 | 2036 ft | 251 kts | 315° |
| 2026-05-05 22:43 | 53.83721 | 28.13350 | 1708 ft | 234 kts | 316° |
| 2026-05-05 22:43 | 53.84866 | 28.11587 | 1477 ft | 214 kts | 316° |
| 2026-05-05 22:44 | 53.85958 | 28.10031 | 1194 ft | 197 kts | 319° |
| 2026-05-05 22:44 | 53.86955 | 28.08568 | 912 ft | 184 kts | 319° |
| 2026-05-05 22:44 | 53.87901 | 28.07199 | 694 ft | 172 kts | 320° |
| 2026-05-05 22:44 | 53.88732 | 28.05986 | 634 ft | 134 kts | 319° |
| 2026-05-05 22:45 | 53.89364 | 28.05047 | 634 ft | 109 kts | 319° |
| 2026-05-05 22:45 | 53.89708 | 28.04493 | 637 ft | 37 kts | 295° |
| 2026-05-05 22:45 | 53.89753 | 28.04152 | 640 ft | 13 kts | 224° |
| 2026-05-05 22:45 | 53.89692 | 28.04158 | 635 ft | 14 kts | 143° |
| 2026-05-05 22:46 | 53.89588 | 28.04309 | 635 ft | 21 kts | 139° |
| 2026-05-05 22:46 | 53.89461 | 28.04496 | 634 ft | 28 kts | 139° |
| 2026-05-05 22:46 | 53.89331 | 28.04639 | 635 ft | 9 kts | 195° |
| 2026-05-05 22:46 | 53.89288 | 28.04597 | 635 ft | 6 kts | 192° |
| 2026-05-05 22:47 | 53.89220 | 28.04623 | 641 ft | 18 kts | 186° |
| 2026-05-05 22:47 | 53.89083 | 28.04413 | 638 ft | 36 kts | 230° |
| 2026-05-05 22:47 | 53.88877 | 28.04015 | 635 ft | 51 kts | 229° |
| 2026-05-05 22:47 | 53.88762 | 28.03745 | 635 ft | 8 kts | 282° |
| 2026-05-05 22:48 | 53.88803 | 28.03667 | 634 ft | 9 kts | 319° |
| 2026-05-05 22:48 | 53.88806 | 28.03662 | 634 ft | 0 kts | 319° |